createdAt,value
2023-04-19T00:01:53.920Z,96.24
2023-04-19T00:04:39.432Z,95.02
2023-04-19T00:07:23.518Z,95.44
2023-04-19T00:10:08.813Z,92.66
2023-04-19T00:12:53.384Z,93.38
2023-04-19T00:15:37.721Z,92.38
2023-04-19T00:18:23.216Z,91.77
2023-04-19T00:21:07.872Z,93.42
2023-04-19T00:23:51.758Z,95.08
2023-04-19T00:26:35.812Z,94.74
2023-04-19T00:29:19.888Z,96.45
2023-04-19T00:32:06.033Z,97.45
2023-04-19T00:34:51.562Z,98.53
2023-04-19T00:37:35.892Z,98.86
2023-04-19T00:40:21.821Z,99.26
2023-04-19T00:43:05.809Z,99.36
2023-04-19T00:45:51.275Z,99.73
2023-04-19T00:48:37.520Z,100.00
2023-04-19T00:51:23.154Z,100.00
2023-04-19T00:54:08.432Z,100.00
2023-04-19T00:56:53.033Z,100.00
2023-04-19T00:59:37.017Z,100.00
2023-04-19T01:02:22.482Z,100.00
2023-04-19T01:05:08.086Z,100.00
2023-04-19T01:07:53.665Z,100.00
2023-04-19T01:10:37.622Z,100.00
2023-04-19T01:13:21.627Z,100.00
2023-04-19T01:16:07.732Z,100.00
2023-04-19T01:18:51.860Z,100.00
2023-04-19T01:21:39.556Z,100.00
2023-04-19T01:24:25.111Z,100.00
2023-04-19T01:27:09.135Z,100.00
2023-04-19T01:29:53.147Z,100.00
2023-04-19T01:32:37.218Z,100.00
2023-04-19T01:35:21.467Z,100.00
2023-04-19T01:38:05.611Z,100.00
2023-04-19T01:40:51.024Z,100.00
2023-04-19T01:43:35.071Z,100.00
2023-04-19T01:46:20.156Z,100.00
2023-04-19T01:49:03.947Z,100.00
2023-04-19T01:51:47.819Z,100.00
2023-04-19T01:54:31.758Z,100.00
2023-04-19T01:57:18.924Z,100.00
2023-04-19T02:00:03.297Z,100.00
2023-04-19T02:02:58.764Z,100.00
2023-04-19T02:05:42.680Z,100.00
2023-04-19T02:08:26.540Z,100.00
2023-04-19T02:11:10.875Z,100.00
2023-04-19T02:13:56.411Z,100.00
2023-04-19T02:16:40.582Z,100.00
2023-04-19T02:19:24.612Z,100.00
2023-04-19T02:22:08.539Z,100.00
2023-04-19T02:24:52.662Z,100.00
2023-04-19T02:27:36.837Z,100.00
2023-04-19T02:30:22.226Z,100.00
2023-04-19T02:33:07.753Z,100.00
2023-04-19T02:35:51.745Z,100.00
2023-04-19T02:38:35.569Z,100.00
2023-04-19T02:41:19.766Z,100.00
2023-04-19T02:44:03.745Z,100.00
2023-04-19T02:46:51.569Z,100.00
2023-04-19T02:49:37.974Z,100.00
2023-04-19T02:52:22.319Z,100.00
2023-04-19T02:55:06.955Z,100.00
2023-04-19T02:57:51.317Z,100.00
2023-04-19T03:00:35.784Z,100.00
2023-04-19T03:03:27.032Z,100.00
2023-04-19T03:06:11.272Z,100.00
2023-04-19T03:08:55.152Z,100.00
2023-04-19T03:11:39.093Z,100.00
2023-04-19T03:14:23.243Z,100.00
2023-04-19T03:17:07.702Z,100.00
2023-04-19T03:19:54.603Z,100.00
2023-04-19T03:22:39.179Z,100.00
2023-04-19T03:25:23.325Z,100.00
2023-04-19T03:28:16.058Z,100.00
2023-04-19T03:31:23.376Z,100.00
2023-04-19T03:34:10.280Z,100.00
2023-04-19T03:36:59.844Z,100.00
2023-04-19T03:39:43.762Z,100.00
2023-04-19T03:42:32.209Z,100.00
2023-04-19T03:45:23.037Z,100.00
2023-04-19T03:48:07.619Z,100.00
2023-04-19T03:50:52.161Z,100.00
2023-04-19T03:53:38.510Z,100.00
2023-04-19T03:56:22.402Z,100.00
2023-04-19T03:59:08.021Z,100.00
2023-04-19T04:01:54.225Z,100.00
2023-04-19T04:04:39.186Z,100.00
2023-04-19T04:07:24.762Z,100.00
2023-04-19T04:10:11.941Z,100.00
2023-04-19T04:12:59.612Z,100.00
2023-04-19T04:15:54.627Z,100.00
2023-04-19T04:18:38.880Z,100.00
2023-04-19T04:21:27.337Z,100.00
2023-04-19T04:24:14.335Z,100.00
2023-04-19T04:27:28.991Z,100.00
2023-04-19T04:30:13.676Z,100.00
2023-04-19T04:32:59.188Z,100.00
2023-04-19T04:35:44.186Z,100.00
2023-04-19T04:38:34.202Z,100.00
2023-04-19T04:41:18.200Z,100.00
2023-04-19T04:44:12.630Z,100.00
2023-04-19T04:46:58.193Z,100.00
2023-04-19T04:49:44.520Z,100.00
2023-04-19T04:52:28.502Z,100.00
2023-04-19T04:55:21.316Z,100.00
2023-04-19T04:58:05.718Z,100.00
2023-04-19T05:01:24.071Z,100.00
2023-04-19T05:04:09.543Z,100.00
2023-04-19T05:06:53.569Z,100.00
2023-04-19T05:09:42.270Z,100.00
2023-04-19T05:12:27.337Z,100.00
2023-04-19T05:15:12.404Z,100.00
2023-04-19T05:18:02.341Z,100.00
2023-04-19T05:20:46.946Z,100.00
2023-04-19T05:23:38.752Z,100.00
2023-04-19T05:26:23.229Z,100.00
2023-04-19T05:29:08.492Z,100.00
2023-04-19T05:32:04.205Z,100.00
2023-04-19T05:34:59.150Z,100.00
2023-04-19T05:37:43.162Z,100.00
2023-04-19T05:40:27.156Z,100.00
2023-04-19T05:43:11.484Z,100.00
2023-04-19T05:45:55.419Z,100.00
2023-04-19T05:48:39.238Z,100.00
2023-04-19T05:51:42.999Z,100.00
2023-04-19T05:54:47.173Z,100.00
2023-04-19T05:57:31.360Z,100.00
2023-04-19T06:00:17.348Z,100.00
2023-04-19T06:03:10.051Z,100.00
2023-04-19T06:05:54.220Z,100.00
2023-04-19T06:08:39.524Z,100.00
2023-04-19T06:11:29.231Z,100.00
2023-04-19T06:14:23.760Z,100.00
2023-04-19T06:17:07.935Z,100.00
2023-04-19T06:19:52.230Z,100.00
2023-04-19T06:22:37.150Z,100.00
2023-04-19T06:25:22.620Z,100.00
2023-04-19T06:28:06.780Z,100.00
2023-04-19T06:30:50.745Z,100.00
2023-04-19T06:33:34.685Z,100.00
2023-04-19T06:36:18.578Z,100.00
2023-04-19T06:39:02.484Z,100.00
2023-04-19T06:41:47.803Z,100.00
2023-04-19T06:44:33.885Z,100.00
2023-04-19T06:47:17.758Z,100.00
2023-04-19T06:50:01.533Z,100.00
2023-04-19T06:52:47.303Z,100.00
2023-04-19T06:55:31.240Z,100.00
2023-04-19T06:58:16.595Z,100.00
2023-04-19T07:01:01.370Z,100.00
2023-04-19T07:03:47.552Z,100.00
2023-04-19T07:06:31.912Z,100.00
2023-04-19T07:09:15.710Z,100.00
2023-04-19T07:11:59.549Z,100.00
2023-04-19T07:14:44.824Z,100.00
2023-04-19T07:17:28.693Z,98.72
2023-04-19T07:20:12.786Z,97.38
2023-04-19T07:22:56.832Z,100.00
2023-04-19T07:25:40.787Z,100.00
2023-04-19T07:28:24.627Z,98.79
2023-04-19T07:31:09.920Z,99.04
2023-04-19T07:33:54.239Z,100.00
2023-04-19T07:36:39.146Z,98.44
2023-04-19T07:39:23.008Z,100.00
2023-04-19T07:42:07.025Z,95.19
2023-04-19T07:44:51.288Z,94.45
2023-04-19T07:47:36.821Z,95.13
2023-04-19T07:50:23.123Z,95.05
2023-04-19T07:53:07.268Z,96.76
2023-04-19T07:55:51.390Z,96.51
2023-04-19T07:58:35.485Z,93.98
2023-04-19T08:01:19.405Z,91.28
2023-04-19T08:04:05.091Z,92.96
2023-04-19T08:06:49.034Z,92.50
2023-04-19T08:09:35.273Z,91.40
2023-04-19T08:12:30.951Z,92.16
2023-04-19T08:15:52.340Z,92.37
2023-04-19T08:18:21.436Z,92.69
2023-04-19T08:21:07.213Z,92.48
2023-04-19T08:23:53.555Z,86.49
2023-04-19T08:26:39.129Z,92.86
2023-04-19T08:29:23.468Z,96.30
2023-04-19T08:32:07.602Z,94.39
2023-04-19T08:34:51.411Z,95.34
2023-04-19T08:37:36.787Z,97.93
2023-04-19T08:40:20.939Z,98.14
2023-04-19T08:43:07.310Z,100.00
2023-04-19T08:45:52.231Z,100.00
2023-04-19T08:48:37.672Z,97.98
2023-04-19T08:51:22.340Z,95.87
2023-04-19T08:54:08.728Z,96.42
2023-04-19T08:56:54.169Z,91.54
2023-04-19T08:59:38.068Z,94.15
2023-04-19T09:02:22.150Z,94.45
2023-04-19T09:05:07.689Z,95.88
2023-04-19T09:07:52.070Z,97.31
2023-04-19T09:10:37.277Z,95.92
2023-04-19T09:13:21.308Z,97.67
2023-04-19T09:16:05.683Z,96.04
2023-04-19T09:19:05.454Z,97.58
2023-04-19T09:22:14.814Z,100.00
2023-04-19T09:27:50.072Z,100.00
2023-04-19T09:30:38.086Z,100.00
2023-04-19T09:33:35.210Z,96.63
2023-04-19T09:36:29.045Z,100.00
2023-04-19T09:39:14.801Z,98.94
2023-04-19T09:41:59.404Z,100.00
2023-04-19T09:45:27.772Z,99.92
2023-04-19T09:48:07.799Z,100.00
2023-04-19T09:50:59.559Z,97.08
2023-04-19T09:53:45.383Z,98.66
2023-04-19T09:56:30.048Z,100.00
2023-04-19T09:59:25.218Z,94.65
2023-04-19T10:02:14.290Z,100.00
2023-04-19T10:05:16.227Z,100.00
2023-04-19T10:08:04.159Z,100.00
2023-04-19T10:10:54.240Z,100.00
2023-04-19T10:13:38.776Z,100.00
2023-04-19T10:16:23.017Z,100.00
2023-04-19T10:19:11.596Z,99.19
2023-04-19T10:21:56.609Z,100.00
2023-04-19T10:24:41.447Z,97.52
2023-04-19T10:27:27.165Z,99.18
2023-04-19T10:30:19.058Z,93.62
2023-04-19T10:33:04.164Z,94.27
2023-04-19T10:35:49.632Z,98.77
2023-04-19T10:38:38.273Z,97.97
2023-04-19T10:41:23.265Z,92.48
2023-04-19T10:44:11.484Z,90.95
2023-04-19T10:46:55.400Z,93.78
2023-04-19T10:49:47.078Z,91.22
2023-04-19T10:52:32.584Z,95.41
2023-04-19T10:55:19.636Z,98.24
2023-04-19T10:58:06.429Z,96.82
2023-04-19T11:00:50.351Z,98.01
2023-04-19T11:03:53.583Z,97.78
2023-04-19T11:06:38.297Z,96.02
2023-04-19T11:09:25.528Z,98.08
2023-04-19T11:12:12.425Z,100.00
2023-04-19T11:14:59.996Z,100.00
2023-04-19T11:17:44.257Z,100.00
2023-04-19T11:20:28.293Z,100.00
2023-04-19T11:23:17.732Z,99.54
2023-04-19T11:26:03.221Z,99.11
2023-04-19T11:28:47.064Z,100.00
2023-04-19T11:31:33.688Z,99.77
2023-04-19T11:34:19.572Z,100.00
2023-04-19T11:37:03.772Z,99.86
2023-04-19T11:39:48.540Z,100.00
2023-04-19T11:42:34.610Z,100.00
2023-04-19T11:45:30.116Z,100.00
2023-04-19T11:48:15.903Z,100.00
2023-04-19T11:51:00.910Z,100.00
2023-04-19T11:53:45.348Z,100.00
2023-04-19T11:56:29.481Z,100.00
2023-04-19T11:59:14.741Z,100.00
2023-04-19T12:02:06.455Z,95.78
2023-04-19T12:04:50.742Z,96.23
2023-04-19T12:07:34.655Z,95.93
2023-04-19T12:10:18.537Z,94.32
2023-04-19T12:13:18.533Z,94.39
2023-04-19T12:16:04.546Z,92.28
2023-04-19T12:18:50.716Z,92.45
2023-04-19T12:21:34.826Z,93.58
2023-04-19T12:24:18.838Z,92.55
2023-04-19T12:27:03.259Z,93.27
2023-04-19T12:29:48.151Z,92.14
2023-04-19T12:32:33.521Z,93.66
2023-04-19T12:35:17.443Z,89.68
2023-04-19T12:38:02.805Z,93.48
2023-04-19T12:40:46.613Z,91.91
2023-04-19T12:43:32.077Z,92.76
2023-04-19T12:46:15.983Z,93.92
2023-04-19T12:49:01.419Z,89.88
2023-04-19T12:51:47.503Z,88.55
2023-04-19T12:54:31.248Z,88.33
2023-04-19T12:57:15.149Z,86.89
2023-04-19T12:59:59.096Z,89.38
2023-04-19T13:02:43.231Z,83.04
2023-04-19T13:05:28.622Z,86.06
2023-04-19T13:08:12.560Z,85.92
2023-04-19T13:10:56.998Z,84.75
2023-04-19T13:13:40.799Z,82.54
2023-04-19T13:16:24.741Z,80.97
2023-04-19T13:19:08.834Z,80.90
2023-04-19T13:21:54.240Z,79.00
2023-04-19T13:24:38.245Z,80.92
2023-04-19T13:27:22.161Z,82.23
2023-04-19T13:30:07.015Z,78.48
2023-04-19T13:32:52.384Z,75.15
2023-04-19T13:35:36.296Z,76.95
2023-04-19T13:38:21.505Z,76.69
2023-04-19T13:41:05.656Z,76.37
2023-04-19T13:43:49.781Z,75.44
2023-04-19T13:46:34.073Z,77.07
2023-04-19T13:49:18.430Z,78.15
2023-04-19T13:52:02.336Z,77.09
2023-04-19T13:54:47.738Z,77.70
2023-04-19T13:57:31.588Z,76.28
2023-04-19T14:00:16.781Z,75.43
2023-04-19T14:03:00.769Z,77.92
2023-04-19T14:05:44.756Z,74.69
2023-04-19T14:08:32.580Z,75.48
2023-04-19T14:11:18.657Z,77.65
2023-04-19T14:14:02.734Z,76.81
2023-04-19T14:16:47.130Z,77.44
2023-04-19T14:19:31.425Z,78.72
2023-04-19T14:22:15.353Z,80.42
2023-04-19T14:24:59.251Z,76.51
2023-04-19T14:27:44.748Z,77.29
2023-04-19T14:30:29.994Z,77.21
2023-04-19T14:33:15.349Z,77.19
2023-04-19T14:35:59.284Z,77.23
2023-04-19T14:38:43.075Z,77.86
2023-04-19T14:41:27.034Z,76.29
2023-04-19T14:44:12.307Z,77.97
2023-04-19T14:46:56.281Z,77.84
2023-04-19T14:49:40.335Z,80.77
2023-04-19T14:52:24.590Z,81.57
2023-04-19T14:55:09.710Z,81.33
2023-04-19T14:57:53.586Z,80.69
2023-04-19T15:00:38.928Z,81.60
2023-04-19T15:03:23.096Z,82.33
2023-04-19T15:06:08.088Z,82.39
2023-04-19T15:08:51.998Z,81.54
2023-04-19T15:11:35.890Z,83.71
2023-04-19T15:14:20.039Z,79.93
2023-04-19T15:17:05.310Z,79.55
2023-04-19T15:19:49.205Z,81.54
2023-04-19T15:22:33.826Z,81.68
2023-04-19T15:25:17.868Z,78.11
2023-04-19T15:28:01.851Z,77.99
2023-04-19T15:30:45.867Z,76.24
2023-04-19T15:33:31.553Z,79.56
2023-04-19T15:36:15.916Z,77.81
2023-04-19T15:38:59.808Z,77.07
2023-04-19T15:41:43.613Z,76.19
2023-04-19T15:44:27.556Z,77.62
2023-04-19T15:47:11.466Z,76.92
2023-04-19T15:49:57.540Z,79.68
2023-04-19T15:52:41.354Z,77.86
2023-04-19T15:55:25.148Z,77.26
2023-04-19T15:58:08.969Z,79.30
2023-04-19T16:00:52.963Z,78.57
2023-04-19T16:03:37.207Z,78.50
2023-04-19T16:06:23.172Z,79.97
2023-04-19T16:09:08.373Z,79.28
2023-04-19T16:11:52.593Z,80.23
2023-04-19T16:14:36.926Z,79.76
2023-04-19T16:17:20.824Z,81.25
2023-04-19T16:20:04.929Z,80.26
2023-04-19T16:22:50.361Z,80.38
2023-04-19T16:25:34.725Z,79.77
2023-04-19T16:28:19.028Z,80.78
2023-04-19T16:31:02.959Z,80.76
2023-04-19T16:33:46.750Z,80.18
2023-04-19T16:36:31.632Z,81.57
2023-04-19T16:39:17.291Z,82.69
2023-04-19T16:42:01.480Z,83.30
2023-04-19T16:44:45.464Z,82.42
2023-04-19T16:47:30.169Z,85.44
2023-04-19T16:50:14.368Z,84.93
2023-04-19T16:52:58.654Z,83.31
2023-04-19T16:55:43.865Z,87.70
2023-04-19T16:58:28.334Z,85.93
2023-04-19T17:01:12.463Z,85.76
2023-04-19T17:03:56.726Z,84.99
2023-04-19T17:06:41.710Z,84.61
2023-04-19T17:09:25.737Z,86.61
2023-04-19T17:12:11.358Z,86.24
2023-04-19T17:14:55.390Z,85.44
2023-04-19T17:17:40.113Z,84.47
2023-04-19T17:20:24.245Z,85.43
2023-04-19T17:23:08.537Z,84.56
2023-04-19T17:25:52.533Z,84.86
2023-04-19T17:28:38.140Z,87.45
2023-04-19T17:31:22.243Z,86.39
2023-04-19T17:34:06.031Z,86.58
2023-04-19T17:36:49.940Z,86.92
2023-04-19T17:39:33.821Z,86.57
2023-04-19T17:42:17.785Z,87.35
2023-04-19T17:45:03.281Z,86.83
2023-04-19T17:47:48.550Z,86.43
2023-04-19T17:50:32.527Z,86.86
2023-04-19T17:53:16.388Z,87.61
2023-04-19T17:56:00.584Z,87.53
2023-04-19T17:58:44.466Z,88.25
2023-04-19T18:01:30.197Z,89.01
2023-04-19T18:04:17.992Z,89.08
2023-04-19T18:07:02.323Z,89.18
2023-04-19T18:09:46.379Z,89.71
2023-04-19T18:12:30.217Z,89.95
2023-04-19T18:15:14.190Z,90.12
2023-04-19T18:17:59.606Z,90.08
2023-04-19T18:20:43.550Z,91.17
2023-04-19T18:23:27.368Z,91.12
2023-04-19T18:26:11.180Z,90.46
2023-04-19T18:28:55.038Z,91.46
2023-04-19T18:31:39.227Z,91.17
2023-04-19T18:34:24.608Z,91.23
2023-04-19T18:37:16.811Z,91.15
2023-04-19T18:40:00.629Z,91.78
2023-04-19T18:42:46.869Z,91.32
2023-04-19T18:45:31.485Z,92.60
2023-04-19T18:48:15.467Z,92.90
2023-04-19T18:51:00.944Z,93.16
2023-04-19T18:53:45.534Z,92.80
2023-04-19T18:59:16.747Z,92.57
2023-04-19T19:02:00.905Z,93.18
2023-04-19T19:04:56.130Z,93.54
2023-04-19T19:07:44.041Z,91.83
2023-04-19T19:10:54.216Z,91.50
2023-04-19T19:13:32.377Z,92.11
2023-04-19T19:16:19.427Z,91.85
2023-04-19T19:19:03.526Z,92.38
2023-04-19T19:21:48.514Z,92.22
2023-04-19T19:24:33.857Z,91.68
2023-04-19T19:27:17.738Z,91.49
2023-04-19T19:30:03.496Z,91.69
2023-04-19T19:32:48.565Z,91.90
2023-04-19T19:35:32.797Z,91.29
2023-04-19T19:38:17.151Z,91.17
2023-04-19T19:43:49.281Z,91.84
2023-04-19T19:46:33.475Z,92.32
2023-04-19T19:49:18.537Z,92.89
2023-04-19T19:52:03.279Z,91.78
2023-04-19T19:54:47.150Z,92.60
2023-04-19T20:03:07.070Z,93.02
2023-04-19T20:05:52.109Z,92.71
2023-04-19T20:08:42.476Z,93.52
2023-04-19T20:11:28.068Z,92.17
2023-04-19T20:14:13.347Z,92.00
2023-04-19T20:16:57.476Z,91.86
2023-04-19T20:19:45.029Z,92.83
2023-04-19T20:22:28.948Z,92.21
2023-04-19T20:25:13.259Z,93.47
2023-04-19T20:27:57.046Z,92.64
2023-04-19T20:30:42.388Z,93.44
2023-04-19T20:33:26.302Z,94.50
2023-04-19T20:36:10.134Z,93.84
2023-04-19T20:38:54.142Z,94.67
2023-04-19T20:41:38.179Z,94.01
2023-04-19T20:44:23.188Z,93.42
2023-04-19T20:47:09.010Z,93.79
2023-04-19T20:49:52.924Z,94.76
2023-04-19T20:52:36.762Z,94.45
2023-04-19T20:55:20.530Z,93.92
2023-04-19T20:58:04.261Z,93.86
2023-04-19T21:00:48.614Z,93.36
2023-04-19T21:03:34.088Z,93.53
2023-04-19T21:06:18.302Z,94.47
2023-04-19T21:09:04.413Z,94.17
2023-04-19T21:11:48.361Z,93.88
2023-04-19T21:14:33.715Z,93.08
2023-04-19T21:17:17.574Z,92.85
2023-04-19T21:20:10.945Z,93.23
2023-04-19T21:22:54.964Z,92.83
2023-04-19T21:25:38.845Z,93.85
2023-04-19T21:28:22.724Z,92.19
2023-04-19T21:31:06.856Z,92.37
2023-04-19T21:33:50.762Z,91.08
2023-04-19T21:36:35.990Z,91.30
2023-04-19T21:39:19.818Z,91.76
2023-04-19T21:42:03.908Z,89.65
2023-04-19T21:44:47.964Z,89.55
2023-04-19T21:47:32.252Z,88.67
2023-04-19T21:50:16.215Z,88.37
2023-04-19T21:53:01.521Z,89.70
2023-04-19T21:55:45.443Z,89.75
2023-04-19T21:58:29.222Z,89.76
2023-04-19T22:01:13.105Z,89.53
2023-04-19T22:03:57.147Z,90.52
2023-04-19T22:06:41.625Z,91.17
2023-04-19T22:09:26.927Z,92.05
2023-04-19T22:12:11.609Z,92.39
2023-04-19T22:14:56.045Z,92.61
2023-04-19T22:17:40.496Z,93.61
2023-04-19T22:20:26.042Z,95.10
2023-04-19T22:23:10.108Z,94.59
2023-04-19T22:25:55.610Z,96.14
2023-04-19T22:28:39.789Z,96.70
2023-04-19T22:31:23.848Z,97.94
2023-04-19T22:34:07.871Z,98.15
2023-04-19T22:36:51.970Z,99.11
2023-04-19T22:39:36.084Z,98.14
2023-04-19T22:42:21.646Z,99.34
2023-04-19T22:45:06.422Z,99.63
2023-04-19T22:47:50.296Z,98.93
2023-04-19T22:50:34.447Z,98.83
2023-04-19T22:53:18.492Z,98.87
2023-04-19T22:56:02.420Z,98.64
2023-04-19T22:58:47.909Z,97.69
2023-04-19T23:01:32.077Z,97.91
2023-04-19T23:04:16.330Z,97.32
2023-04-19T23:07:00.383Z,97.81
2023-04-19T23:09:44.488Z,97.96
2023-04-19T23:12:31.149Z,98.36
2023-04-19T23:15:16.740Z,98.37
2023-04-19T23:18:02.456Z,98.40
2023-04-19T23:20:46.783Z,97.67
2023-04-19T23:23:30.841Z,97.70
2023-04-19T23:26:14.802Z,97.78
2023-04-19T23:28:58.737Z,98.38
2023-04-19T23:31:44.263Z,97.60
2023-04-19T23:34:28.348Z,97.32
2023-04-19T23:37:12.499Z,97.94
2023-04-19T23:39:56.580Z,98.93
2023-04-19T23:42:40.837Z,97.88
2023-04-19T23:45:24.929Z,99.13
2023-04-19T23:48:10.526Z,99.06
2023-04-19T23:50:54.632Z,98.20
2023-04-19T23:53:38.924Z,98.17
2023-04-19T23:56:23.000Z,97.36
2023-04-19T23:59:07.242Z,98.52
